sensor_id;sensor_type;location;lat;lon;timestamp;P1;durP1;ratioP1;P2;durP2;ratioP2
68438;SDS011;55421;51.600;5.718;2022-11-12T00:00:54;17.10;;;11.00;;
68438;SDS011;55421;51.600;5.718;2022-11-12T00:03:21;21.20;;;10.80;;
68438;SDS011;55421;51.600;5.718;2022-11-12T00:05:47;18.20;;;9.80;;
68438;SDS011;55421;51.600;5.718;2022-11-12T00:08:16;16.30;;;10.00;;
68438;SDS011;55421;51.600;5.718;2022-11-12T00:10:44;17.90;;;10.20;;
68438;SDS011;55421;51.600;5.718;2022-11-12T00:13:11;17.30;;;10.90;;
68438;SDS011;55421;51.600;5.718;2022-11-12T00:15:38;19.30;;;11.80;;
68438;SDS011;55421;51.600;5.718;2022-11-12T00:18:06;19.20;;;11.40;;
68438;SDS011;55421;51.600;5.718;2022-11-12T00:20:33;17.70;;;10.10;;
68438;SDS011;55421;51.600;5.718;2022-11-12T00:23:00;18.50;;;9.20;;
68438;SDS011;55421;51.600;5.718;2022-11-12T00:25:27;17.10;;;9.60;;
68438;SDS011;55421;51.600;5.718;2022-11-12T00:28:03;17.30;;;10.80;;
68438;SDS011;55421;51.600;5.718;2022-11-12T00:30:30;19.90;;;10.40;;
68438;SDS011;55421;51.600;5.718;2022-11-12T00:33:00;17.00;;;10.60;;
68438;SDS011;55421;51.600;5.718;2022-11-12T00:35:29;17.30;;;10.60;;
68438;SDS011;55421;51.600;5.718;2022-11-12T00:37:57;20.20;;;10.60;;
68438;SDS011;55421;51.600;5.718;2022-11-12T00:40:26;18.40;;;10.90;;
68438;SDS011;55421;51.600;5.718;2022-11-12T00:42:53;15.60;;;10.40;;
68438;SDS011;55421;51.600;5.718;2022-11-12T00:45:20;17.70;;;10.00;;
68438;SDS011;55421;51.600;5.718;2022-11-12T00:47:47;19.10;;;11.20;;
68438;SDS011;55421;51.600;5.718;2022-11-12T00:50:14;20.00;;;10.90;;
68438;SDS011;55421;51.600;5.718;2022-11-12T00:52:41;18.40;;;11.40;;
68438;SDS011;55421;51.600;5.718;2022-11-12T00:55:08;19.50;;;11.50;;
68438;SDS011;55421;51.600;5.718;2022-11-12T00:57:35;19.60;;;10.20;;
68438;SDS011;55421;51.600;5.718;2022-11-12T01:00:04;18.10;;;9.70;;
68438;SDS011;55421;51.600;5.718;2022-11-12T01:02:33;16.50;;;10.50;;
68438;SDS011;55421;51.600;5.718;2022-11-12T01:04:59;18.70;;;9.10;;
68438;SDS011;55421;51.600;5.718;2022-11-12T01:07:26;20.30;;;10.20;;
68438;SDS011;55421;51.600;5.718;2022-11-12T01:09:53;17.70;;;10.70;;
68438;SDS011;55421;51.600;5.718;2022-11-12T01:12:23;18.60;;;11.70;;
68438;SDS011;55421;51.600;5.718;2022-11-12T01:14:49;16.60;;;9.80;;
68438;SDS011;55421;51.600;5.718;2022-11-12T01:17:16;17.40;;;9.60;;
68438;SDS011;55421;51.600;5.718;2022-11-12T01:19:42;15.30;;;9.30;;
68438;SDS011;55421;51.600;5.718;2022-11-12T01:22:10;15.90;;;9.90;;
68438;SDS011;55421;51.600;5.718;2022-11-12T01:24:37;16.50;;;9.50;;
68438;SDS011;55421;51.600;5.718;2022-11-12T01:27:03;14.90;;;9.00;;
68438;SDS011;55421;51.600;5.718;2022-11-12T01:29:30;13.30;;;8.70;;
68438;SDS011;55421;51.600;5.718;2022-11-12T01:31:56;13.30;;;8.90;;
68438;SDS011;55421;51.600;5.718;2022-11-12T01:34:25;20.50;;;10.40;;
68438;SDS011;55421;51.600;5.718;2022-11-12T01:36:52;14.80;;;9.40;;
68438;SDS011;55421;51.600;5.718;2022-11-12T01:39:19;13.90;;;8.70;;
68438;SDS011;55421;51.600;5.718;2022-11-12T01:41:45;13.90;;;8.90;;
68438;SDS011;55421;51.600;5.718;2022-11-12T01:44:20;14.90;;;8.60;;
68438;SDS011;55421;51.600;5.718;2022-11-12T01:47:01;16.10;;;9.10;;
68438;SDS011;55421;51.600;5.718;2022-11-12T01:49:46;16.50;;;9.40;;
68438;SDS011;55421;51.600;5.718;2022-11-12T01:53:09;17.50;;;9.80;;
68438;SDS011;55421;51.600;5.718;2022-11-12T01:55:18;14.50;;;9.00;;
68438;SDS011;55421;51.600;5.718;2022-11-12T01:57:55;15.10;;;8.90;;
68438;SDS011;55421;51.600;5.718;2022-11-12T02:00:30;15.00;;;9.60;;
68438;SDS011;55421;51.600;5.718;2022-11-12T02:02:59;18.30;;;9.20;;
68438;SDS011;55421;51.600;5.718;2022-11-12T02:05:28;14.40;;;9.20;;
68438;SDS011;55421;51.600;5.718;2022-11-12T02:07:57;16.30;;;10.00;;
68438;SDS011;55421;51.600;5.718;2022-11-12T02:10:26;13.00;;;8.90;;
68438;SDS011;55421;51.600;5.718;2022-11-12T02:12:53;16.80;;;9.00;;
68438;SDS011;55421;51.600;5.718;2022-11-12T02:15:40;15.10;;;9.30;;
68438;SDS011;55421;51.600;5.718;2022-11-12T02:18:06;13.30;;;8.80;;
68438;SDS011;55421;51.600;5.718;2022-11-12T02:20:35;15.20;;;9.30;;
68438;SDS011;55421;51.600;5.718;2022-11-12T02:23:04;13.90;;;8.70;;
68438;SDS011;55421;51.600;5.718;2022-11-12T02:25:33;12.70;;;8.40;;
68438;SDS011;55421;51.600;5.718;2022-11-12T02:28:04;14.90;;;8.80;;
68438;SDS011;55421;51.600;5.718;2022-11-12T02:30:33;16.10;;;9.50;;
68438;SDS011;55421;51.600;5.718;2022-11-12T02:33:02;14.80;;;9.50;;
68438;SDS011;55421;51.600;5.718;2022-11-12T02:35:29;16.80;;;8.90;;
68438;SDS011;55421;51.600;5.718;2022-11-12T02:37:57;14.00;;;8.40;;
68438;SDS011;55421;51.600;5.718;2022-11-12T02:40:24;13.80;;;8.30;;
68438;SDS011;55421;51.600;5.718;2022-11-12T02:42:51;13.90;;;8.20;;
68438;SDS011;55421;51.600;5.718;2022-11-12T02:45:18;13.60;;;8.80;;
68438;SDS011;55421;51.600;5.718;2022-11-12T02:47:45;13.30;;;9.00;;
68438;SDS011;55421;51.600;5.718;2022-11-12T02:50:12;14.30;;;8.50;;
68438;SDS011;55421;51.600;5.718;2022-11-12T02:52:39;13.60;;;8.40;;
68438;SDS011;55421;51.600;5.718;2022-11-12T02:55:07;12.60;;;8.10;;
68438;SDS011;55421;51.600;5.718;2022-11-12T02:57:36;13.90;;;9.10;;
68438;SDS011;55421;51.600;5.718;2022-11-12T03:00:06;16.50;;;8.80;;
68438;SDS011;55421;51.600;5.718;2022-11-12T03:02:35;13.00;;;8.30;;
68438;SDS011;55421;51.600;5.718;2022-11-12T03:05:09;14.60;;;8.50;;
68438;SDS011;55421;51.600;5.718;2022-11-12T03:07:38;11.80;;;8.70;;
68438;SDS011;55421;51.600;5.718;2022-11-12T03:10:05;10.80;;;7.00;;
68438;SDS011;55421;51.600;5.718;2022-11-12T03:12:32;10.90;;;7.60;;
68438;SDS011;55421;51.600;5.718;2022-11-12T03:14:59;11.10;;;7.10;;
68438;SDS011;55421;51.600;5.718;2022-11-12T03:17:25;13.20;;;7.90;;
68438;SDS011;55421;51.600;5.718;2022-11-12T03:19:52;10.20;;;7.50;;
68438;SDS011;55421;51.600;5.718;2022-11-12T03:22:18;11.10;;;7.80;;
68438;SDS011;55421;51.600;5.718;2022-11-12T03:24:45;14.10;;;8.40;;
68438;SDS011;55421;51.600;5.718;2022-11-12T03:27:11;13.30;;;7.90;;
68438;SDS011;55421;51.600;5.718;2022-11-12T03:29:38;12.80;;;8.20;;
68438;SDS011;55421;51.600;5.718;2022-11-12T03:32:04;11.00;;;7.30;;
68438;SDS011;55421;51.600;5.718;2022-11-12T03:34:31;12.30;;;8.50;;
68438;SDS011;55421;51.600;5.718;2022-11-12T03:36:57;13.20;;;8.60;;
68438;SDS011;55421;51.600;5.718;2022-11-12T03:39:24;11.00;;;7.00;;
68438;SDS011;55421;51.600;5.718;2022-11-12T03:41:50;11.80;;;8.10;;
68438;SDS011;55421;51.600;5.718;2022-11-12T03:44:17;12.70;;;7.70;;
68438;SDS011;55421;51.600;5.718;2022-11-12T03:46:43;11.30;;;7.50;;
68438;SDS011;55421;51.600;5.718;2022-11-12T03:49:10;12.90;;;7.40;;
68438;SDS011;55421;51.600;5.718;2022-11-12T03:51:36;11.70;;;7.70;;
68438;SDS011;55421;51.600;5.718;2022-11-12T03:54:03;12.80;;;9.10;;
68438;SDS011;55421;51.600;5.718;2022-11-12T03:56:29;13.00;;;8.50;;
68438;SDS011;55421;51.600;5.718;2022-11-12T03:58:56;12.60;;;8.30;;
68438;SDS011;55421;51.600;5.718;2022-11-12T04:01:22;12.90;;;7.80;;
68438;SDS011;55421;51.600;5.718;2022-11-12T04:03:49;10.90;;;7.40;;
68438;SDS011;55421;51.600;5.718;2022-11-12T04:06:16;13.70;;;7.60;;
68438;SDS011;55421;51.600;5.718;2022-11-12T04:09:01;11.60;;;7.90;;
68438;SDS011;55421;51.600;5.718;2022-11-12T04:11:28;11.50;;;8.30;;
68438;SDS011;55421;51.600;5.718;2022-11-12T04:13:54;11.70;;;7.70;;
68438;SDS011;55421;51.600;5.718;2022-11-12T04:16:22;13.70;;;8.30;;
68438;SDS011;55421;51.600;5.718;2022-11-12T04:19:11;11.60;;;7.30;;
68438;SDS011;55421;51.600;5.718;2022-11-12T04:21:59;12.90;;;7.30;;
68438;SDS011;55421;51.600;5.718;2022-11-12T04:24:38;11.90;;;7.50;;
68438;SDS011;55421;51.600;5.718;2022-11-12T04:27:28;11.80;;;7.90;;
68438;SDS011;55421;51.600;5.718;2022-11-12T04:29:57;12.20;;;7.70;;
68438;SDS011;55421;51.600;5.718;2022-11-12T04:32:53;14.50;;;8.60;;
68438;SDS011;55421;51.600;5.718;2022-11-12T04:35:24;10.60;;;7.00;;
68438;SDS011;55421;51.600;5.718;2022-11-12T04:37:51;11.30;;;7.30;;
68438;SDS011;55421;51.600;5.718;2022-11-12T04:40:23;11.40;;;6.80;;
68438;SDS011;55421;51.600;5.718;2022-11-12T04:43:14;12.30;;;6.90;;
68438;SDS011;55421;51.600;5.718;2022-11-12T04:46:02;11.70;;;7.30;;
68438;SDS011;55421;51.600;5.718;2022-11-12T04:48:30;13.70;;;8.30;;
68438;SDS011;55421;51.600;5.718;2022-11-12T04:51:02;12.40;;;7.50;;
68438;SDS011;55421;51.600;5.718;2022-11-12T04:53:50;11.00;;;7.20;;
68438;SDS011;55421;51.600;5.718;2022-11-12T04:56:17;11.70;;;6.70;;
68438;SDS011;55421;51.600;5.718;2022-11-12T04:58:44;13.00;;;7.90;;
68438;SDS011;55421;51.600;5.718;2022-11-12T05:01:11;15.10;;;8.00;;
68438;SDS011;55421;51.600;5.718;2022-11-12T05:03:37;13.20;;;7.60;;
68438;SDS011;55421;51.600;5.718;2022-11-12T05:06:05;14.80;;;7.70;;
68438;SDS011;55421;51.600;5.718;2022-11-12T05:08:55;9.30;;;6.20;;
68438;SDS011;55421;51.600;5.718;2022-11-12T05:11:21;11.80;;;7.80;;
68438;SDS011;55421;51.600;5.718;2022-11-12T05:13:48;11.90;;;7.90;;
68438;SDS011;55421;51.600;5.718;2022-11-12T05:16:15;17.60;;;9.00;;
68438;SDS011;55421;51.600;5.718;2022-11-12T05:18:41;13.50;;;8.60;;
68438;SDS011;55421;51.600;5.718;2022-11-12T05:21:08;16.50;;;8.40;;
68438;SDS011;55421;51.600;5.718;2022-11-12T05:23:57;13.40;;;7.70;;
68438;SDS011;55421;51.600;5.718;2022-11-12T05:26:24;13.20;;;8.40;;
68438;SDS011;55421;51.600;5.718;2022-11-12T05:28:50;12.80;;;8.00;;
68438;SDS011;55421;51.600;5.718;2022-11-12T05:31:17;16.80;;;9.10;;
68438;SDS011;55421;51.600;5.718;2022-11-12T05:33:44;13.30;;;8.90;;
68438;SDS011;55421;51.600;5.718;2022-11-12T05:36:10;11.20;;;7.70;;
68438;SDS011;55421;51.600;5.718;2022-11-12T05:38:37;13.00;;;7.70;;
68438;SDS011;55421;51.600;5.718;2022-11-12T05:41:04;14.40;;;8.40;;
68438;SDS011;55421;51.600;5.718;2022-11-12T05:43:31;11.50;;;8.10;;
68438;SDS011;55421;51.600;5.718;2022-11-12T05:45:57;14.60;;;8.60;;
68438;SDS011;55421;51.600;5.718;2022-11-12T05:48:24;16.20;;;9.30;;
68438;SDS011;55421;51.600;5.718;2022-11-12T05:50:51;12.30;;;7.90;;
68438;SDS011;55421;51.600;5.718;2022-11-12T05:53:19;13.30;;;7.80;;
68438;SDS011;55421;51.600;5.718;2022-11-12T05:55:45;13.40;;;8.20;;
68438;SDS011;55421;51.600;5.718;2022-11-12T05:58:11;13.70;;;7.60;;
68438;SDS011;55421;51.600;5.718;2022-11-12T06:00:38;13.90;;;8.10;;
68438;SDS011;55421;51.600;5.718;2022-11-12T06:03:05;12.50;;;8.30;;
68438;SDS011;55421;51.600;5.718;2022-11-12T06:05:33;14.00;;;8.50;;
68438;SDS011;55421;51.600;5.718;2022-11-12T06:08:04;12.30;;;8.20;;
68438;SDS011;55421;51.600;5.718;2022-11-12T06:10:32;13.00;;;7.90;;
68438;SDS011;55421;51.600;5.718;2022-11-12T06:12:59;15.10;;;7.30;;
68438;SDS011;55421;51.600;5.718;2022-11-12T06:15:26;14.00;;;7.00;;
68438;SDS011;55421;51.600;5.718;2022-11-12T06:17:53;9.90;;;7.20;;
68438;SDS011;55421;51.600;5.718;2022-11-12T06:20:21;11.10;;;7.30;;
68438;SDS011;55421;51.600;5.718;2022-11-12T06:22:49;15.70;;;8.70;;
68438;SDS011;55421;51.600;5.718;2022-11-12T06:25:16;15.10;;;8.40;;
68438;SDS011;55421;51.600;5.718;2022-11-12T06:27:43;15.40;;;8.80;;
68438;SDS011;55421;51.600;5.718;2022-11-12T06:30:10;14.50;;;8.00;;
68438;SDS011;55421;51.600;5.718;2022-11-12T06:32:37;10.80;;;7.40;;
68438;SDS011;55421;51.600;5.718;2022-11-12T06:35:04;14.40;;;7.20;;
68438;SDS011;55421;51.600;5.718;2022-11-12T06:37:31;10.30;;;7.00;;
68438;SDS011;55421;51.600;5.718;2022-11-12T06:39:58;13.10;;;7.20;;
68438;SDS011;55421;51.600;5.718;2022-11-12T06:42:24;12.70;;;8.40;;
68438;SDS011;55421;51.600;5.718;2022-11-12T06:44:51;32.60;;;9.80;;
68438;SDS011;55421;51.600;5.718;2022-11-12T06:47:17;14.70;;;8.30;;
68438;SDS011;55421;51.600;5.718;2022-11-12T06:49:43;13.60;;;7.90;;
68438;SDS011;55421;51.600;5.718;2022-11-12T06:52:10;13.80;;;7.50;;
68438;SDS011;55421;51.600;5.718;2022-11-12T06:54:37;10.70;;;7.60;;
68438;SDS011;55421;51.600;5.718;2022-11-12T06:57:03;11.30;;;7.30;;
68438;SDS011;55421;51.600;5.718;2022-11-12T06:59:30;15.60;;;8.60;;
68438;SDS011;55421;51.600;5.718;2022-11-12T07:01:57;12.90;;;8.40;;
68438;SDS011;55421;51.600;5.718;2022-11-12T07:04:24;12.40;;;7.50;;
68438;SDS011;55421;51.600;5.718;2022-11-12T07:06:50;10.50;;;6.90;;
68438;SDS011;55421;51.600;5.718;2022-11-12T07:09:17;12.80;;;7.00;;
68438;SDS011;55421;51.600;5.718;2022-11-12T07:11:43;12.00;;;7.00;;
68438;SDS011;55421;51.600;5.718;2022-11-12T07:14:10;12.00;;;7.50;;
68438;SDS011;55421;51.600;5.718;2022-11-12T07:16:37;14.70;;;8.00;;
68438;SDS011;55421;51.600;5.718;2022-11-12T07:19:03;12.50;;;8.60;;
68438;SDS011;55421;51.600;5.718;2022-11-12T07:21:30;12.50;;;7.00;;
68438;SDS011;55421;51.600;5.718;2022-11-12T07:23:56;13.50;;;6.80;;
68438;SDS011;55421;51.600;5.718;2022-11-12T07:26:25;11.70;;;7.30;;
68438;SDS011;55421;51.600;5.718;2022-11-12T07:28:53;10.90;;;7.20;;
68438;SDS011;55421;51.600;5.718;2022-11-12T07:31:22;14.00;;;7.50;;
68438;SDS011;55421;51.600;5.718;2022-11-12T07:33:48;13.70;;;8.20;;
68438;SDS011;55421;51.600;5.718;2022-11-12T07:36:17;10.40;;;7.10;;
68438;SDS011;55421;51.600;5.718;2022-11-12T07:38:45;12.40;;;6.90;;
68438;SDS011;55421;51.600;5.718;2022-11-12T07:41:15;12.30;;;7.50;;
68438;SDS011;55421;51.600;5.718;2022-11-12T07:43:44;11.20;;;7.80;;
68438;SDS011;55421;51.600;5.718;2022-11-12T07:46:14;16.90;;;9.60;;
68438;SDS011;55421;51.600;5.718;2022-11-12T07:48:49;15.80;;;8.40;;
68438;SDS011;55421;51.600;5.718;2022-11-12T07:53:47;16.00;;;7.70;;
68438;SDS011;55421;51.600;5.718;2022-11-12T07:56:18;12.00;;;8.20;;
68438;SDS011;55421;51.600;5.718;2022-11-12T07:58:46;17.70;;;9.50;;
68438;SDS011;55421;51.600;5.718;2022-11-12T08:01:34;11.20;;;7.70;;
68438;SDS011;55421;51.600;5.718;2022-11-12T08:04:08;16.20;;;8.70;;
68438;SDS011;55421;51.600;5.718;2022-11-12T08:06:36;19.80;;;8.20;;
68438;SDS011;55421;51.600;5.718;2022-11-12T08:09:06;14.60;;;8.40;;
68438;SDS011;55421;51.600;5.718;2022-11-12T08:11:33;18.20;;;8.90;;
68438;SDS011;55421;51.600;5.718;2022-11-12T08:14:02;20.10;;;10.00;;
68438;SDS011;55421;51.600;5.718;2022-11-12T08:16:30;16.10;;;9.60;;
68438;SDS011;55421;51.600;5.718;2022-11-12T08:18:57;18.40;;;9.20;;
68438;SDS011;55421;51.600;5.718;2022-11-12T08:21:24;14.20;;;9.80;;
68438;SDS011;55421;51.600;5.718;2022-11-12T08:23:51;23.50;;;10.10;;
68438;SDS011;55421;51.600;5.718;2022-11-12T08:26:19;21.60;;;10.90;;
68438;SDS011;55421;51.600;5.718;2022-11-12T08:28:46;22.70;;;9.80;;
68438;SDS011;55421;51.600;5.718;2022-11-12T08:31:18;23.60;;;9.90;;
68438;SDS011;55421;51.600;5.718;2022-11-12T08:33:47;19.80;;;9.80;;
68438;SDS011;55421;51.600;5.718;2022-11-12T08:36:15;17.00;;;10.40;;
68438;SDS011;55421;51.600;5.718;2022-11-12T08:38:43;23.00;;;11.20;;
68438;SDS011;55421;51.600;5.718;2022-11-12T08:41:12;17.90;;;11.60;;
68438;SDS011;55421;51.600;5.718;2022-11-12T08:43:44;19.90;;;10.50;;
68438;SDS011;55421;51.600;5.718;2022-11-12T08:46:11;18.40;;;10.30;;
68438;SDS011;55421;51.600;5.718;2022-11-12T08:48:39;21.00;;;9.50;;
68438;SDS011;55421;51.600;5.718;2022-11-12T08:51:06;18.10;;;10.20;;
68438;SDS011;55421;51.600;5.718;2022-11-12T08:53:33;18.30;;;11.10;;
68438;SDS011;55421;51.600;5.718;2022-11-12T08:56:00;20.20;;;12.10;;
68438;SDS011;55421;51.600;5.718;2022-11-12T08:58:27;22.60;;;13.40;;
68438;SDS011;55421;51.600;5.718;2022-11-12T09:00:54;19.40;;;12.00;;
68438;SDS011;55421;51.600;5.718;2022-11-12T09:03:23;24.20;;;12.10;;
68438;SDS011;55421;51.600;5.718;2022-11-12T09:05:51;20.20;;;10.90;;
68438;SDS011;55421;51.600;5.718;2022-11-12T09:08:21;18.30;;;10.30;;
68438;SDS011;55421;51.600;5.718;2022-11-12T09:10:49;20.40;;;11.20;;
68438;SDS011;55421;51.600;5.718;2022-11-12T09:13:19;22.80;;;11.40;;
68438;SDS011;55421;51.600;5.718;2022-11-12T09:15:46;18.50;;;11.20;;
68438;SDS011;55421;51.600;5.718;2022-11-12T09:18:15;18.90;;;10.00;;
68438;SDS011;55421;51.600;5.718;2022-11-12T09:20:43;13.50;;;9.80;;
68438;SDS011;55421;51.600;5.718;2022-11-12T09:23:12;17.90;;;9.70;;
68438;SDS011;55421;51.600;5.718;2022-11-12T09:25:40;16.30;;;10.10;;
68438;SDS011;55421;51.600;5.718;2022-11-12T09:28:13;19.30;;;10.60;;
68438;SDS011;55421;51.600;5.718;2022-11-12T09:30:44;17.20;;;10.90;;
68438;SDS011;55421;51.600;5.718;2022-11-12T09:33:18;14.80;;;10.00;;
68438;SDS011;55421;51.600;5.718;2022-11-12T09:35:47;14.80;;;9.10;;
68438;SDS011;55421;51.600;5.718;2022-11-12T09:38:15;16.80;;;9.20;;
68438;SDS011;55421;51.600;5.718;2022-11-12T09:43:33;18.80;;;10.10;;
68438;SDS011;55421;51.600;5.718;2022-11-12T09:46:53;20.00;;;11.00;;
68438;SDS011;55421;51.600;5.718;2022-11-12T09:49:10;17.70;;;10.20;;
68438;SDS011;55421;51.600;5.718;2022-11-12T09:51:58;19.50;;;10.60;;
68438;SDS011;55421;51.600;5.718;2022-11-12T09:54:30;18.10;;;10.60;;
68438;SDS011;55421;51.600;5.718;2022-11-12T09:56:58;16.40;;;10.70;;
68438;SDS011;55421;51.600;5.718;2022-11-12T09:59:31;19.40;;;11.80;;
68438;SDS011;55421;51.600;5.718;2022-11-12T10:02:26;14.80;;;11.10;;
68438;SDS011;55421;51.600;5.718;2022-11-12T10:04:57;17.70;;;10.90;;
68438;SDS011;55421;51.600;5.718;2022-11-12T10:08:10;23.20;;;15.80;;
68438;SDS011;55421;51.600;5.718;2022-11-12T10:14:24;19.10;;;11.50;;
68438;SDS011;55421;51.600;5.718;2022-11-12T10:17:12;18.40;;;11.50;;
68438;SDS011;55421;51.600;5.718;2022-11-12T10:19:58;16.40;;;12.00;;
68438;SDS011;55421;51.600;5.718;2022-11-12T10:23:02;18.60;;;12.40;;
68438;SDS011;55421;51.600;5.718;2022-11-12T10:25:42;21.90;;;13.00;;
68438;SDS011;55421;51.600;5.718;2022-11-12T10:28:29;18.10;;;12.50;;
68438;SDS011;55421;51.600;5.718;2022-11-12T10:31:08;16.60;;;11.00;;
68438;SDS011;55421;51.600;5.718;2022-11-12T10:33:38;18.50;;;11.80;;
68438;SDS011;55421;51.600;5.718;2022-11-12T10:36:17;15.50;;;11.60;;
68438;SDS011;55421;51.600;5.718;2022-11-12T10:38:56;17.50;;;11.70;;
68438;SDS011;55421;51.600;5.718;2022-11-12T10:41:29;17.20;;;12.20;;
68438;SDS011;55421;51.600;5.718;2022-11-12T10:44:01;16.60;;;11.80;;
68438;SDS011;55421;51.600;5.718;2022-11-12T10:46:33;18.80;;;12.10;;
68438;SDS011;55421;51.600;5.718;2022-11-12T10:51:53;20.80;;;14.50;;
68438;SDS011;55421;51.600;5.718;2022-11-12T11:00:05;16.20;;;11.70;;
68438;SDS011;55421;51.600;5.718;2022-11-12T11:03:14;19.00;;;12.20;;
68438;SDS011;55421;51.600;5.718;2022-11-12T11:05:55;23.30;;;13.60;;
68438;SDS011;55421;51.600;5.718;2022-11-12T11:08:35;19.40;;;13.20;;
68438;SDS011;55421;51.600;5.718;2022-11-12T11:11:26;21.60;;;14.20;;
68438;SDS011;55421;51.600;5.718;2022-11-12T11:14:32;20.70;;;14.40;;
68438;SDS011;55421;51.600;5.718;2022-11-12T11:17:04;21.50;;;13.60;;
68438;SDS011;55421;51.600;5.718;2022-11-12T11:19:40;18.60;;;12.60;;
68438;SDS011;55421;51.600;5.718;2022-11-12T11:25:19;26.00;;;13.00;;
68438;SDS011;55421;51.600;5.718;2022-11-12T11:36:50;22.80;;;13.60;;
68438;SDS011;55421;51.600;5.718;2022-11-12T11:39:45;18.70;;;13.30;;
68438;SDS011;55421;51.600;5.718;2022-11-12T11:57:28;24.00;;;13.30;;
68438;SDS011;55421;51.600;5.718;2022-11-12T12:00:20;19.60;;;13.80;;
68438;SDS011;55421;51.600;5.718;2022-11-12T12:03:16;18.50;;;12.10;;
68438;SDS011;55421;51.600;5.718;2022-11-12T12:09:06;18.30;;;12.20;;
68438;SDS011;55421;51.600;5.718;2022-11-12T12:14:45;17.80;;;11.60;;
68438;SDS011;55421;51.600;5.718;2022-11-12T12:21:16;16.80;;;12.10;;
68438;SDS011;55421;51.600;5.718;2022-11-12T12:23:54;19.60;;;12.60;;
68438;SDS011;55421;51.600;5.718;2022-11-12T12:26:39;18.50;;;12.50;;
68438;SDS011;55421;51.600;5.718;2022-11-12T12:29:16;17.60;;;11.80;;
68438;SDS011;55421;51.600;5.718;2022-11-12T12:32:48;15.50;;;11.10;;
68438;SDS011;55421;51.600;5.718;2022-11-12T12:35:00;13.80;;;11.20;;
68438;SDS011;55421;51.600;5.718;2022-11-12T12:40:22;15.60;;;11.00;;
68438;SDS011;55421;51.600;5.718;2022-11-12T12:45:56;16.40;;;12.10;;
68438;SDS011;55421;51.600;5.718;2022-11-12T12:48:50;17.30;;;13.60;;
68438;SDS011;55421;51.600;5.718;2022-11-12T12:51:18;15.40;;;12.20;;
68438;SDS011;55421;51.600;5.718;2022-11-12T12:53:45;16.00;;;12.80;;
68438;SDS011;55421;51.600;5.718;2022-11-12T13:04:02;18.90;;;13.30;;
68438;SDS011;55421;51.600;5.718;2022-11-12T13:06:38;18.30;;;13.90;;
68438;SDS011;55421;51.600;5.718;2022-11-12T13:19:34;18.60;;;12.30;;
68438;SDS011;55421;51.600;5.718;2022-11-12T13:38:11;19.40;;;13.20;;
68438;SDS011;55421;51.600;5.718;2022-11-12T13:40:44;17.40;;;14.10;;
68438;SDS011;55421;51.600;5.718;2022-11-12T13:43:39;17.40;;;13.90;;
68438;SDS011;55421;51.600;5.718;2022-11-12T13:46:16;18.40;;;13.40;;
68438;SDS011;55421;51.600;5.718;2022-11-12T13:48:59;17.80;;;12.90;;
68438;SDS011;55421;51.600;5.718;2022-11-12T13:51:43;19.10;;;12.60;;
68438;SDS011;55421;51.600;5.718;2022-11-12T13:54:31;18.00;;;13.30;;
68438;SDS011;55421;51.600;5.718;2022-11-12T13:59:49;19.50;;;13.90;;
68438;SDS011;55421;51.600;5.718;2022-11-12T14:02:33;17.70;;;12.50;;
68438;SDS011;55421;51.600;5.718;2022-11-12T14:05:15;18.40;;;13.00;;
68438;SDS011;55421;51.600;5.718;2022-11-12T14:08:01;15.90;;;12.60;;
68438;SDS011;55421;51.600;5.718;2022-11-12T14:10:58;20.80;;;13.60;;
68438;SDS011;55421;51.600;5.718;2022-11-12T14:13:50;20.80;;;14.10;;
68438;SDS011;55421;51.600;5.718;2022-11-12T14:17:10;19.40;;;14.00;;
68438;SDS011;55421;51.600;5.718;2022-11-12T14:23:08;17.20;;;12.30;;
68438;SDS011;55421;51.600;5.718;2022-11-12T14:25:48;19.00;;;13.20;;
68438;SDS011;55421;51.600;5.718;2022-11-12T14:28:34;16.80;;;13.30;;
68438;SDS011;55421;51.600;5.718;2022-11-12T14:31:03;18.10;;;13.30;;
68438;SDS011;55421;51.600;5.718;2022-11-12T14:33:31;17.30;;;12.60;;
68438;SDS011;55421;51.600;5.718;2022-11-12T14:36:10;17.00;;;13.50;;
68438;SDS011;55421;51.600;5.718;2022-11-12T14:38:45;18.70;;;13.00;;
68438;SDS011;55421;51.600;5.718;2022-11-12T14:41:32;15.10;;;11.80;;
68438;SDS011;55421;51.600;5.718;2022-11-12T14:44:04;14.60;;;11.30;;
68438;SDS011;55421;51.600;5.718;2022-11-12T14:46:50;17.60;;;12.10;;
68438;SDS011;55421;51.600;5.718;2022-11-12T14:49:41;16.30;;;11.90;;
68438;SDS011;55421;51.600;5.718;2022-11-12T14:52:15;17.20;;;12.90;;
68438;SDS011;55421;51.600;5.718;2022-11-12T14:54:50;16.10;;;12.10;;
68438;SDS011;55421;51.600;5.718;2022-11-12T14:57:27;18.30;;;12.10;;
68438;SDS011;55421;51.600;5.718;2022-11-12T14:59:56;16.60;;;11.50;;
68438;SDS011;55421;51.600;5.718;2022-11-12T15:02:31;13.70;;;10.60;;
68438;SDS011;55421;51.600;5.718;2022-11-12T15:05:10;16.90;;;10.80;;
68438;SDS011;55421;51.600;5.718;2022-11-12T15:07:57;17.60;;;11.10;;
68438;SDS011;55421;51.600;5.718;2022-11-12T15:10:43;18.80;;;11.40;;
68438;SDS011;55421;51.600;5.718;2022-11-12T15:13:25;16.10;;;11.30;;
68438;SDS011;55421;51.600;5.718;2022-11-12T15:16:04;20.20;;;12.20;;
68438;SDS011;55421;51.600;5.718;2022-11-12T15:18:36;15.70;;;11.50;;
68438;SDS011;55421;51.600;5.718;2022-11-12T15:23:48;17.50;;;11.00;;
68438;SDS011;55421;51.600;5.718;2022-11-12T15:26:35;14.60;;;11.10;;
68438;SDS011;55421;51.600;5.718;2022-11-12T15:32:48;15.00;;;10.70;;
68438;SDS011;55421;51.600;5.718;2022-11-12T15:34:49;17.60;;;11.30;;
68438;SDS011;55421;51.600;5.718;2022-11-12T15:39:49;20.60;;;14.10;;
68438;SDS011;55421;51.600;5.718;2022-11-12T15:42:30;21.20;;;14.20;;
68438;SDS011;55421;51.600;5.718;2022-11-12T15:45:09;17.00;;;11.30;;
68438;SDS011;55421;51.600;5.718;2022-11-12T15:47:41;15.40;;;10.50;;
68438;SDS011;55421;51.600;5.718;2022-11-12T15:50:20;15.20;;;10.50;;
68438;SDS011;55421;51.600;5.718;2022-11-12T15:52:49;20.70;;;11.50;;
68438;SDS011;55421;51.600;5.718;2022-11-12T15:55:16;14.50;;;11.40;;
68438;SDS011;55421;51.600;5.718;2022-11-12T15:57:47;29.00;;;12.30;;
68438;SDS011;55421;51.600;5.718;2022-11-12T16:00:31;17.00;;;11.30;;
68438;SDS011;55421;51.600;5.718;2022-11-12T16:03:16;16.60;;;10.70;;
68438;SDS011;55421;51.600;5.718;2022-11-12T16:05:45;14.10;;;9.80;;
68438;SDS011;55421;51.600;5.718;2022-11-12T16:08:11;13.70;;;9.70;;
68438;SDS011;55421;51.600;5.718;2022-11-12T16:10:39;18.10;;;11.30;;
68438;SDS011;55421;51.600;5.718;2022-11-12T16:13:15;19.50;;;12.10;;
68438;SDS011;55421;51.600;5.718;2022-11-12T16:15:53;18.40;;;12.10;;
68438;SDS011;55421;51.600;5.718;2022-11-12T16:18:20;14.90;;;11.10;;
68438;SDS011;55421;51.600;5.718;2022-11-12T16:20:47;19.40;;;11.00;;
68438;SDS011;55421;51.600;5.718;2022-11-12T16:23:15;20.20;;;10.40;;
68438;SDS011;55421;51.600;5.718;2022-11-12T16:25:42;18.30;;;10.40;;
68438;SDS011;55421;51.600;5.718;2022-11-12T16:28:13;18.60;;;10.70;;
68438;SDS011;55421;51.600;5.718;2022-11-12T16:30:42;23.40;;;10.60;;
68438;SDS011;55421;51.600;5.718;2022-11-12T16:33:11;17.70;;;10.20;;
68438;SDS011;55421;51.600;5.718;2022-11-12T16:35:39;17.80;;;10.00;;
68438;SDS011;55421;51.600;5.718;2022-11-12T16:38:12;13.30;;;9.70;;
68438;SDS011;55421;51.600;5.718;2022-11-12T16:40:41;14.40;;;10.40;;
68438;SDS011;55421;51.600;5.718;2022-11-12T16:43:09;21.40;;;11.90;;
68438;SDS011;55421;51.600;5.718;2022-11-12T16:45:41;17.90;;;11.40;;
68438;SDS011;55421;51.600;5.718;2022-11-12T16:48:17;19.90;;;10.90;;